Time;durP1;ratioP1;P1;durP2;ratioP2;P2;SDS_P1;SDS_P2;PMS_P1;PMS_P2;Temp;Humidity;BMP_temperature;BMP_pressure;BME280_temperature;BME280_humidity;BME280_pressure;Samples;Min_cycle;Max_cycle;Signal;HPM_P1;HPM_P2
2022/08/23 00:01:42;;;;;;;8.20;3.83;;;;;;;18.81;60.38;99135.59;5063358;28;20125;-55
2022/08/23 00:04:13;;;;;;;9.13;3.92;;;;;;;18.56;59.78;99134.09;5054992;28;20032;-57
2022/08/23 00:06:39;;;;;;;7.45;3.85;;;;;;;18.37;59.00;99134.13;5067626;28;20066;-56
2022/08/23 00:09:04;;;;;;;7.25;4.05;;;;;;;18.29;59.32;99125.56;5057443;28;20471;-57
2022/08/23 00:11:35;;;;;;;11.43;4.13;;;;;;;18.32;60.97;99124.16;5061100;28;20033;-56
2022/08/23 00:14:07;;;;;;;8.82;4.10;;;;;;;18.42;60.00;99128.63;5065661;28;20054;-56
2022/08/23 00:16:32;;;;;;;11.13;3.90;;;;;;;18.45;60.26;99128.84;5062905;28;20175;-56
2022/08/23 00:18:58;;;;;;;10.70;4.20;;;;;;;18.53;59.24;99132.78;5069971;28;20025;-57
2022/08/23 00:21:23;;;;;;;8.13;4.10;;;;;;;18.50;59.72;99130.69;5066308;28;20469;-56
2022/08/23 00:23:49;;;;;;;14.70;4.30;;;;;;;18.45;59.02;99122.63;5069260;28;20082;-57
2022/08/23 00:26:15;;;;;;;11.23;4.00;;;;;;;18.26;59.85;99131.59;5064079;28;20552;-58
2022/08/23 00:28:40;;;;;;;10.95;4.13;;;;;;;18.18;60.80;99124.13;5065996;28;20020;-56
2022/08/23 00:31:06;;;;;;;11.32;3.92;;;;;;;18.08;60.22;99132.41;5057485;28;20037;-57
2022/08/23 00:33:31;;;;;;;13.13;4.07;;;;;;;18.08;60.33;99135.94;5062193;28;20033;-55
2022/08/23 00:35:57;;;;;;;9.27;3.75;;;;;;;18.09;59.98;99134.03;5069365;28;20016;-56
2022/08/23 00:38:23;;;;;;;7.97;3.80;;;;;;;18.06;60.47;99132.69;5069874;28;20024;-55
2022/08/23 00:40:50;;;;;;;10.13;4.47;;;;;;;17.94;61.57;99139.69;5070137;28;20031;-55
2022/08/23 00:49:08;;;;;;;18.15;4.82;;;;;;;17.49;63.52;99139.16;5041029;28;20040;-56
2022/08/23 00:51:37;;;;;;;15.85;4.40;;;;;;;17.22;64.55;99140.53;5059860;28;20464;-56
2022/08/23 00:54:03;;;;;;;9.73;4.05;;;;;;;17.33;64.87;99136.63;5050315;28;20032;-55
2022/08/23 00:56:30;;;;;;;7.85;4.00;;;;;;;17.38;64.63;99133.88;5071205;28;20116;-57
2022/08/23 00:58:56;;;;;;;9.60;3.83;;;;;;;17.45;62.69;99128.91;5082424;28;20045;-57
2022/08/23 01:01:22;;;;;;;12.60;4.28;;;;;;;17.52;62.69;99138.56;5069074;28;20035;-57
2022/08/23 01:03:53;;;;;;;14.85;4.38;;;;;;;17.53;62.75;99142.91;5068001;28;20032;-55
2022/08/23 01:06:25;;;;;;;38.78;6.15;;;;;;;17.68;62.14;99140.00;5082292;28;20128;-57
2022/08/23 01:08:53;;;;;;;31.02;6.38;;;;;;;17.90;62.21;99139.47;5064370;28;20412;-56
2022/08/23 01:11:32;;;;;;;32.05;5.25;;;;;;;17.81;62.82;99150.16;5064819;28;20039;-57
2022/08/23 01:14:00;;;;;;;17.10;5.30;;;;;;;17.59;62.12;99141.75;5051771;28;20021;-56
2022/08/23 01:16:33;;;;;;;19.42;4.93;;;;;;;17.40;63.45;99137.09;5068948;28;20491;-57
2022/08/23 01:19:00;;;;;;;22.80;4.55;;;;;;;17.38;63.61;99144.72;5065433;28;20109;-57
2022/08/23 01:21:30;;;;;;;21.17;4.85;;;;;;;17.39;63.98;99142.78;5065143;28;20151;-57
2022/08/23 01:23:56;;;;;;;28.40;5.45;;;;;;;17.21;64.57;99137.03;5052536;28;20086;-56
2022/08/23 01:26:22;;;;;;;24.83;5.15;;;;;;;17.19;64.91;99136.50;5082492;28;20029;-56
2022/08/23 01:28:48;;;;;;;16.80;4.90;;;;;;;17.16;65.21;99137.09;5061005;28;20078;-57
2022/08/23 01:31:13;;;;;;;11.15;4.65;;;;;;;17.17;64.29;99143.31;5066266;28;20037;-57
2022/08/23 01:33:39;;;;;;;10.18;3.95;;;;;;;17.02;64.80;99142.41;5064878;28;20029;-56
2022/08/23 01:36:06;;;;;;;14.77;4.50;;;;;;;16.61;65.32;99142.75;5064986;28;20467;-57
2022/08/23 01:38:31;;;;;;;12.85;4.72;;;;;;;16.37;66.87;99142.69;5068059;28;20539;-56
2022/08/23 01:40:57;;;;;;;10.98;4.80;;;;;;;16.29;67.96;99145.97;5070656;28;20059;-57
2022/08/23 01:43:22;;;;;;;17.30;5.10;;;;;;;16.49;67.10;99150.44;5057693;28;20040;-57
2022/08/23 01:45:49;;;;;;;11.35;4.97;;;;;;;16.59;66.64;99144.94;5069050;28;20028;-57
2022/08/23 01:48:14;;;;;;;9.20;4.78;;;;;;;16.35;66.84;99153.00;5072010;28;20033;-57
2022/08/23 01:50:40;;;;;;;7.63;4.15;;;;;;;16.16;67.32;99152.84;5054422;28;20503;-57
2022/08/23 01:53:05;;;;;;;10.15;4.88;;;;;;;15.82;68.76;99154.66;5063031;28;20029;-57
2022/08/23 01:55:31;;;;;;;12.85;4.60;;;;;;;16.02;68.48;99154.53;5060625;28;20028;-57
2022/08/23 01:57:57;;;;;;;10.70;4.60;;;;;;;15.91;68.69;99161.13;5065755;28;20025;-56
2022/08/23 02:00:25;;;;;;;15.40;4.82;;;;;;;16.00;68.03;99150.50;5073004;28;20525;-57
2022/08/23 02:02:51;;;;;;;17.95;5.68;;;;;;;15.92;68.19;99146.50;5074214;28;20495;-57
2022/08/23 02:05:17;;;;;;;14.57;5.03;;;;;;;15.98;68.52;99150.81;5064903;28;20135;-57
2022/08/23 02:07:43;;;;;;;17.52;4.78;;;;;;;16.20;69.15;99154.97;5065972;28;20119;-57
2022/08/23 02:10:09;;;;;;;10.77;4.90;;;;;;;16.08;67.93;99153.44;5064263;28;20036;-56
2022/08/23 02:12:35;;;;;;;16.77;4.85;;;;;;;16.06;68.45;99157.50;5071312;28;20393;-57
2022/08/23 02:15:03;;;;;;;18.77;5.20;;;;;;;15.92;68.87;99152.72;5059615;28;20029;-56
2022/08/23 02:17:29;;;;;;;11.15;4.68;;;;;;;15.98;69.10;99158.13;5071214;28;20030;-56
2022/08/23 02:19:54;;;;;;;21.27;5.10;;;;;;;15.98;68.65;99160.81;5071986;28;20028;-56
2022/08/23 02:22:20;;;;;;;13.02;6.40;;;;;;;15.87;68.57;99157.34;5072205;28;20040;-57
2022/08/23 02:24:45;;;;;;;13.02;4.80;;;;;;;15.79;69.41;99157.94;5054876;28;20072;-57
2022/08/23 02:27:14;;;;;;;13.13;5.10;;;;;;;15.56;69.91;99162.88;5055403;28;20113;-56
2022/08/23 02:29:40;;;;;;;12.27;4.75;;;;;;;15.38;71.07;99164.31;5055330;28;20074;-57
2022/08/23 02:32:06;;;;;;;11.85;5.18;;;;;;;15.58;70.37;99176.91;5053378;28;20147;-56
2022/08/23 02:34:31;;;;;;;10.18;5.03;;;;;;;15.62;69.94;99174.47;5092385;28;20503;-57
2022/08/23 02:36:57;;;;;;;16.17;5.28;;;;;;;15.42;70.96;99169.94;5062097;28;20098;-56
2022/08/23 02:39:22;;;;;;;13.27;4.97;;;;;;;15.47;71.68;99168.03;5066163;28;20089;-57
2022/08/23 02:41:48;;;;;;;10.50;4.90;;;;;;;15.37;70.88;99167.25;5074284;28;20028;-57
2022/08/23 02:44:14;;;;;;;15.23;5.70;;;;;;;15.41;70.57;99162.94;5071976;28;20039;-57
2022/08/23 02:46:39;;;;;;;14.98;5.22;;;;;;;15.52;69.45;99170.75;5071827;28;20447;-57
2022/08/23 02:49:05;;;;;;;8.13;4.75;;;;;;;15.58;68.82;99179.63;5061545;28;20095;-56
2022/08/23 02:51:30;;;;;;;12.82;4.60;;;;;;;15.52;68.70;99170.75;5059818;28;20082;-57
2022/08/23 02:53:56;;;;;;;10.55;4.68;;;;;;;15.68;69.32;99167.97;5064450;28;20463;-56
2022/08/23 02:56:22;;;;;;;13.52;5.15;;;;;;;15.73;68.44;99171.47;5060960;28;20053;-56
2022/08/23 02:58:48;;;;;;;17.73;4.65;;;;;;;15.82;69.97;99171.69;5064717;28;20017;-57
2022/08/23 03:01:28;;;;;;;11.85;4.40;;;;;;;15.79;67.93;99168.75;5071932;28;20032;-56
2022/08/23 03:03:54;;;;;;;11.40;4.40;;;;;;;15.53;68.32;99172.34;5062592;28;20051;-57
2022/08/23 03:06:20;;;;;;;17.88;4.30;;;;;;;15.52;68.91;99164.50;5070873;28;20041;-57
2022/08/23 03:08:45;;;;;;;12.27;4.90;;;;;;;15.48;69.45;99172.38;5055113;28;20641;-57
2022/08/23 03:11:12;;;;;;;9.07;4.93;;;;;;;15.56;70.10;99176.38;5066246;28;20037;-57
2022/08/23 03:13:38;;;;;;;14.32;5.00;;;;;;;15.62;69.04;99172.56;5068138;28;20047;-57
2022/08/23 03:16:04;;;;;;;12.93;4.72;;;;;;;15.69;68.82;99175.81;5071280;28;20024;-56
2022/08/23 03:18:30;;;;;;;12.70;4.68;;;;;;;15.82;68.43;99173.59;5069897;28;20558;-56
2022/08/23 03:20:56;;;;;;;24.10;6.90;;;;;;;15.65;68.63;99184.72;5068254;28;20067;-57
2022/08/23 03:23:21;;;;;;;10.93;5.03;;;;;;;15.42;69.65;99181.56;5061979;28;20329;-56
2022/08/23 03:25:46;;;;;;;11.38;4.40;;;;;;;15.30;70.23;99175.66;5067612;28;20025;-56
2022/08/23 03:28:12;;;;;;;11.73;4.60;;;;;;;15.48;70.94;99174.25;5068144;28;20082;-57
2022/08/23 03:30:37;;;;;;;15.32;5.32;;;;;;;15.56;69.35;99176.38;5070536;28;20056;-56
2022/08/23 03:33:03;;;;;;;11.05;4.90;;;;;;;15.61;69.31;99172.84;5063284;28;20042;-58
2022/08/23 03:35:28;;;;;;;15.20;5.40;;;;;;;15.49;69.25;99182.06;5100708;28;20035;-57
2022/08/23 03:37:54;;;;;;;15.02;5.47;;;;;;;15.14;70.77;99174.88;5062610;28;20028;-56
2022/08/23 03:40:19;;;;;;;16.33;5.20;;;;;;;15.10;71.65;99177.34;5061042;28;20040;-56
2022/08/23 03:42:45;;;;;;;9.52;4.65;;;;;;;14.98;71.66;99179.53;5052805;28;20028;-56
2022/08/23 03:45:10;;;;;;;11.63;5.18;;;;;;;15.03;71.42;99178.72;5060744;28;20533;-57
2022/08/23 03:47:36;;;;;;;10.48;5.28;;;;;;;14.88;71.87;99188.44;5070333;28;20028;-56
2022/08/23 03:50:01;;;;;;;11.73;5.47;;;;;;;14.81;72.60;99181.69;5063247;28;20067;-56
2022/08/23 03:52:27;;;;;;;12.68;5.30;;;;;;;14.58;73.64;99188.47;5067200;28;20039;-56
2022/08/23 03:54:52;;;;;;;12.18;5.43;;;;;;;14.71;73.72;99196.00;5064519;28;20498;-56
2022/08/23 03:57:17;;;;;;;11.45;4.75;;;;;;;14.96;73.88;99195.16;5053597;28;20028;-56
2022/08/23 03:59:43;;;;;;;9.50;5.20;;;;;;;15.07;73.26;99190.56;5060669;28;20016;-56
2022/08/23 04:02:08;;;;;;;12.20;5.45;;;;;;;15.01;72.00;99197.84;5065308;28;20036;-56
2022/08/23 04:04:34;;;;;;;9.93;5.63;;;;;;;14.84;72.51;99203.53;5069838;28;20040;-57
2022/08/23 04:06:59;;;;;;;12.27;5.32;;;;;;;14.88;74.04;99209.22;5070726;28;20500;-57
2022/08/23 04:09:25;;;;;;;15.02;5.53;;;;;;;14.92;73.31;99209.47;5070768;28;20021;-57
2022/08/23 04:11:51;;;;;;;10.75;5.18;;;;;;;14.74;74.87;99213.53;5068977;28;20552;-57
2022/08/23 04:14:17;;;;;;;11.63;5.15;;;;;;;14.94;74.44;99212.72;5070089;28;20056;-57
2022/08/23 04:16:43;;;;;;;9.90;4.90;;;;;;;14.95;74.43;99208.91;5098176;28;20423;-56
2022/08/23 04:19:11;;;;;;;11.45;5.22;;;;;;;14.87;72.88;99213.78;5061070;28;20108;-57
2022/08/23 04:21:38;;;;;;;11.02;5.53;;;;;;;14.83;73.02;99218.13;5058153;28;20031;-56
2022/08/23 04:24:03;;;;;;;9.77;5.97;;;;;;;14.71;73.61;99216.78;5054055;28;20179;-58
2022/08/23 04:26:29;;;;;;;15.55;5.63;;;;;;;14.56;73.72;99223.78;5063924;28;20403;-58
2022/08/23 04:28:54;;;;;;;14.88;5.43;;;;;;;14.50;73.96;99229.38;5064137;28;20030;-58
2022/08/23 04:31:20;;;;;;;12.57;5.55;;;;;;;14.46;74.28;99232.63;5051705;28;20024;-56
2022/08/23 04:33:46;;;;;;;9.50;5.32;;;;;;;14.39;74.60;99233.97;5072145;28;20093;-56
2022/08/23 04:36:11;;;;;;;14.05;5.60;;;;;;;14.52;74.35;99238.03;5059710;28;20473;-58
2022/08/23 04:38:37;;;;;;;11.10;6.25;;;;;;;14.43;73.23;99237.75;5062106;28;20028;-57
2022/08/23 04:43:46;;;;;;;11.20;5.65;;;;;;;14.46;73.61;99240.72;5061476;28;20036;-56
2022/08/23 04:46:15;;;;;;;9.45;4.88;;;;;;;15.13;72.30;99248.06;5069375;28;20032;-57
2022/08/23 04:48:43;;;;;;;14.50;5.00;;;;;;;15.82;69.70;99249.25;5069666;28;20103;-57
2022/08/23 04:51:09;;;;;;;14.15;5.20;;;;;;;16.30;68.03;99261.19;5062107;28;20356;-57
2022/08/23 04:53:35;;;;;;;9.30;5.45;;;;;;;16.87;64.38;99263.53;5061984;28;20032;-57
2022/08/23 04:56:01;;;;;;;10.73;5.43;;;;;;;16.96;65.10;99261.84;5057860;28;20031;-57
2022/08/23 04:58:28;;;;;;;16.35;5.18;;;;;;;16.93;64.37;99257.81;5063209;28;20056;-56
2022/08/23 05:00:53;;;;;;;13.82;4.95;;;;;;;17.69;62.03;99269.00;5054075;28;20046;-57
2022/08/23 05:03:19;;;;;;;15.93;6.90;;;;;;;18.24;60.20;99269.41;5052634;28;20438;-57
2022/08/23 05:05:44;;;;;;;16.83;4.72;;;;;;;19.11;57.74;99275.47;5052281;28;20506;-57
2022/08/23 05:08:10;;;;;;;13.23;5.10;;;;;;;19.86;55.07;99288.00;5063369;28;20033;-57
2022/08/23 05:10:35;;;;;;;13.82;5.05;;;;;;;20.71;53.10;99277.47;5064273;28;20506;-57
2022/08/23 05:13:01;;;;;;;14.60;5.00;;;;;;;21.36;51.23;99286.25;5062676;28;20039;-56
2022/08/23 05:15:26;;;;;;;14.25;5.38;;;;;;;21.21;51.13;99279.28;5067499;28;20033;-57
2022/08/23 05:17:52;;;;;;;12.48;5.05;;;;;;;21.39;50.67;99281.03;5068401;28;20035;-57
2022/08/23 05:20:17;;;;;;;10.80;5.38;;;;;;;21.95;49.04;99292.31;5064200;28;20017;-57
2022/08/23 05:22:42;;;;;;;9.95;5.80;;;;;;;22.22;48.20;99283.09;5060561;28;20032;-57
2022/08/23 05:25:08;;;;;;;11.88;5.63;;;;;;;22.37;47.49;99290.84;5069036;28;20017;-57
2022/08/23 05:27:34;;;;;;;10.25;5.10;;;;;;;23.01;46.77;99294.88;5061598;28;20294;-58
2022/08/23 05:30:00;;;;;;;14.10;5.88;;;;;;;24.05;43.24;99296.50;5057584;28;20017;-57
2022/08/23 05:32:25;;;;;;;12.73;5.20;;;;;;;23.48;44.47;99303.16;5067537;28;20020;-57
2022/08/23 05:34:50;;;;;;;15.80;5.68;;;;;;;24.19;43.22;99304.47;5068608;28;20080;-58
2022/08/23 05:37:16;;;;;;;14.88;5.80;;;;;;;24.77;42.34;99313.78;5064941;28;20025;-57
2022/08/23 05:39:42;;;;;;;20.65;5.10;;;;;;;24.83;41.93;99311.63;5100367;28;20025;-55
2022/08/23 05:42:11;;;;;;;14.00;5.50;;;;;;;24.54;42.28;99313.31;5064170;28;20013;-57
2022/08/23 05:44:36;;;;;;;;;;;;;;;24.81;42.25;99314.72;5060434;28;20029;-57
2022/08/23 05:47:06;;;;;;;11.98;5.20;;;;;;;26.29;39.46;99321.34;5063972;28;19974;-57
2022/08/23 05:49:31;;;;;;;17.02;5.38;;;;;;;26.76;38.91;99320.81;5067052;28;20028;-57
2022/08/23 05:51:57;;;;;;;16.70;5.28;;;;;;;26.75;37.88;99319.19;5069371;28;20043;-57
2022/08/23 05:54:22;;;;;;;17.02;6.07;;;;;;;24.85;41.46;99337.56;5068672;28;20455;-57
2022/08/23 05:56:48;;;;;;;19.50;5.90;;;;;;;27.01;39.25;99323.44;5068966;28;20588;-57
2022/08/23 05:59:14;;;;;;;16.13;5.68;;;;;;;26.37;39.28;99331.38;5068535;28;20035;-57
2022/08/23 06:01:40;;;;;;;13.68;5.45;;;;;;;26.15;39.74;99323.63;5066188;28;20488;-57
2022/08/23 06:04:07;;;;;;;16.77;5.22;;;;;;;27.04;38.19;99328.28;5059566;28;20485;-57
2022/08/23 06:06:32;;;;;;;9.00;4.88;;;;;;;27.60;37.52;99328.22;5060314;28;20032;-57
2022/08/23 06:08:58;;;;;;;19.83;5.40;;;;;;;27.27;37.70;99326.56;5058914;28;20029;-57
2022/08/23 06:11:26;;;;;;;15.55;5.20;;;;;;;27.11;38.13;99331.22;5051160;28;20024;-57
2022/08/23 06:13:53;;;;;;;13.35;5.13;;;;;;;26.67;39.20;99325.63;5064620;28;20060;-57
2022/08/23 06:16:22;;;;;;;19.38;5.03;;;;;;;27.36;37.89;99329.19;5050751;28;20039;-57
2022/08/23 06:18:48;;;;;;;13.13;5.20;;;;;;;27.61;37.24;99329.84;5041989;28;20025;-57
2022/08/23 06:21:13;;;;;;;12.63;4.70;;;;;;;27.49;37.69;99327.94;5063195;28;20249;-57
2022/08/23 06:23:39;;;;;;;15.73;5.30;;;;;;;28.55;36.13;99336.44;5062774;28;20025;-57
2022/08/23 06:26:23;;;;;;;20.75;4.90;;;;;;;28.65;35.93;99342.56;5068533;28;20102;-57
2022/08/23 06:28:50;;;;;;;15.43;4.78;;;;;;;28.48;36.40;99343.75;5070950;28;20035;-57
2022/08/23 06:31:43;;;;;;;16.20;4.88;;;;;;;28.47;36.66;99345.72;5072380;28;20075;-57
2022/08/23 06:34:01;;;;;;;12.98;4.68;;;;;;;29.10;35.06;99346.66;5065894;28;20112;-57
2022/08/23 06:36:27;;;;;;;16.83;5.50;;;;;;;28.27;36.62;99344.84;5067965;28;20128;-57
2022/08/23 06:38:53;;;;;;;16.88;4.65;;;;;;;28.99;35.84;99347.22;5055133;28;20024;-56
2022/08/23 06:41:18;;;;;;;18.58;4.70;;;;;;;29.11;36.38;99351.84;5065279;28;20063;-56
2022/08/23 06:43:44;;;;;;;12.98;4.82;;;;;;;28.96;36.11;99347.94;5104694;28;21466;-57
2022/08/23 06:46:20;;;;;;;16.10;4.82;;;;;;;29.40;35.57;99347.63;5069797;28;20032;-57
2022/08/23 06:48:46;;;;;;;15.40;4.70;;;;;;;28.54;37.01;99348.63;5067481;28;20032;-57
2022/08/23 06:51:13;;;;;;;12.82;4.65;;;;;;;29.31;34.58;99346.31;5070168;28;20033;-57
2022/08/23 06:53:38;;;;;;;9.43;4.40;;;;;;;29.50;34.61;99353.72;5062625;28;20031;-57
2022/08/23 06:56:04;;;;;;;12.43;4.50;;;;;;;29.70;34.15;99344.25;5066487;28;20021;-57
2022/08/23 06:58:30;;;;;;;11.43;3.90;;;;;;;28.48;35.81;99352.84;5072073;28;20047;-57
2022/08/23 07:00:55;;;;;;;14.38;4.07;;;;;;;30.31;33.42;99346.06;5054071;28;20475;-57
2022/08/23 07:03:21;;;;;;;13.27;4.43;;;;;;;30.28;32.62;99355.13;5068343;28;20120;-56
2022/08/23 07:05:46;;;;;;;14.43;3.97;;;;;;;30.49;32.15;99349.09;5061490;28;20407;-56
2022/08/23 07:08:12;;;;;;;11.38;3.92;;;;;;;30.69;31.37;99346.19;5065210;28;20029;-56
2022/08/23 07:10:37;;;;;;;11.23;4.30;;;;;;;31.87;29.98;99355.84;5061337;28;20029;-56
2022/08/23 07:13:02;;;;;;;18.98;4.18;;;;;;;29.98;31.49;99359.72;5067259;28;20586;-56
2022/08/23 07:15:28;;;;;;;19.02;4.45;;;;;;;29.22;32.59;99363.06;5069980;28;20021;-56
2022/08/23 07:17:54;;;;;;;14.93;4.40;;;;;;;29.91;31.53;99356.84;5068343;28;20310;-56
2022/08/23 07:20:19;;;;;;;9.20;3.78;;;;;;;30.65;30.88;99356.41;5056620;28;20025;-56
2022/08/23 07:22:45;;;;;;;23.80;4.40;;;;;;;30.49;30.70;99360.16;5064082;28;20024;-55
2022/08/23 07:25:10;;;;;;;16.60;4.40;;;;;;;25.77;36.90;99363.16;5066177;28;20029;-57
2022/08/23 07:27:36;;;;;;;15.55;4.18;;;;;;;27.89;33.86;99356.53;5071040;28;20442;-57
2022/08/23 07:30:01;;;;;;;10.77;4.00;;;;;;;26.60;35.90;99366.66;5058950;28;20044;-56
2022/08/23 07:32:27;;;;;;;19.13;4.65;;;;;;;25.55;37.45;99365.16;5065932;28;20029;-57
2022/08/23 07:34:52;;;;;;;14.15;4.38;;;;;;;25.98;37.35;99360.34;5070851;28;20078;-56
2022/08/23 07:37:18;;;;;;;15.77;4.80;;;;;;;24.98;38.39;99371.31;5069646;28;20036;-57
2022/08/23 07:39:43;;;;;;;14.02;4.70;;;;;;;23.97;41.27;99379.47;5065228;28;20114;-56
2022/08/23 07:42:09;;;;;;;13.27;4.80;;;;;;;24.49;39.89;99371.03;5066248;28;20025;-56
2022/08/23 07:44:34;;;;;;;16.48;4.90;;;;;;;25.31;39.07;99370.56;5070577;28;20033;-56
2022/08/23 07:47:00;;;;;;;20.33;5.30;;;;;;;27.18;35.68;99369.94;5067356;28;20028;-56
2022/08/23 07:49:26;;;;;;;14.25;4.68;;;;;;;29.08;33.46;99377.41;5060000;28;20021;-57
2022/08/23 07:51:51;;;;;;;12.80;4.40;;;;;;;29.63;32.32;99374.47;5050828;28;20028;-56
2022/08/23 07:54:18;;;;;;;14.18;4.65;;;;;;;27.18;35.35;99372.69;5060747;28;20104;-56
2022/08/23 07:56:43;;;;;;;8.55;4.40;;;;;;;29.34;33.20;99385.00;5094420;28;20116;-57
2022/08/23 07:59:09;;;;;;;12.98;4.30;;;;;;;29.62;31.73;99384.72;5069363;28;20020;-56
2022/08/23 08:01:35;;;;;;;11.30;3.97;;;;;;;28.18;35.39;99386.38;5070170;28;20024;-55
2022/08/23 08:04:01;;;;;;;11.02;4.47;;;;;;;27.57;35.41;99378.47;5059372;28;20127;-56
2022/08/23 08:06:46;;;;;;;6.97;4.00;;;;;;;27.91;35.01;99384.50;5063756;28;20429;-56
2022/08/23 08:09:12;;;;;;;13.07;4.07;;;;;;;29.14;33.32;99375.13;5064465;28;20029;-57
2022/08/23 08:11:39;;;;;;;16.17;4.20;;;;;;;28.40;34.28;99378.59;5061935;28;20109;-56
2022/08/23 08:14:06;;;;;;;12.02;4.18;;;;;;;29.07;33.24;99377.75;5068948;28;20421;-56
2022/08/23 08:16:43;;;;;;;7.25;4.00;;;;;;;27.79;35.20;99373.53;5068328;28;20024;-58
2022/08/23 08:19:10;;;;;;;15.20;4.30;;;;;;;29.30;33.22;99380.56;5063570;28;20036;-56
2022/08/23 08:21:36;;;;;;;13.68;4.53;;;;;;;27.12;36.17;99379.56;5055408;28;20070;-57
2022/08/23 08:24:03;;;;;;;16.13;4.95;;;;;;;29.48;33.47;99383.66;5062562;28;20029;-56
2022/08/23 08:26:28;;;;;;;22.85;4.20;;;;;;;26.44;37.39;99383.81;5100278;28;20474;-57
2022/08/23 08:28:57;;;;;;;16.77;3.95;;;;;;;28.37;35.65;99379.31;5070042;28;20028;-55
2022/08/23 08:31:23;;;;;;;8.30;3.78;;;;;;;29.74;33.24;99383.00;5070266;28;20029;-56
2022/08/23 08:33:49;;;;;;;19.02;4.25;;;;;;;28.93;34.10;99387.31;5070035;28;20032;-55
2022/08/23 08:36:38;;;;;;;13.45;4.30;;;;;;;28.03;35.43;99384.44;5066304;28;20033;-55
2022/08/23 08:39:05;;;;;;;12.13;4.05;;;;;;;29.44;33.18;99384.41;5059873;28;20048;-56
2022/08/23 08:41:55;;;;;;;14.18;4.03;;;;;;;29.37;33.42;99378.75;5068765;28;20085;-56
2022/08/23 08:44:26;;;;;;;21.42;4.32;;;;;;;29.07;33.79;99383.25;5069377;28;20123;-56
2022/08/23 08:46:55;;;;;;;13.55;4.47;;;;;;;27.71;35.88;99384.38;5064867;28;20043;-56
2022/08/23 08:49:41;;;;;;;15.80;4.50;;;;;;;27.80;35.81;99386.16;5063304;28;20024;-56
2022/08/23 08:52:12;;;;;;;15.52;4.60;;;;;;;27.95;35.12;99377.91;5069170;28;20269;-56
2022/08/23 08:54:37;;;;;;;15.52;4.82;;;;;;;28.31;34.73;99378.00;5058383;28;20128;-56
2022/08/23 08:57:03;;;;;;;16.67;4.65;;;;;;;28.14;35.00;99385.47;5058619;28;20021;-56
2022/08/23 08:59:59;;;;;;;10.95;4.30;;;;;;;29.00;33.72;99381.13;5068009;28;20328;-55
2022/08/23 09:02:29;;;;;;;15.30;4.28;;;;;;;27.90;35.47;99391.16;5051934;28;20162;-56
2022/08/23 09:04:54;;;;;;;12.90;4.53;;;;;;;27.99;35.78;99388.25;5083240;28;20495;-55
2022/08/23 09:07:26;;;;;;;10.55;4.50;;;;;;;29.64;33.09;99389.91;5065961;28;20037;-55
2022/08/23 09:10:11;;;;;;;19.85;4.20;;;;;;;30.30;32.40;99385.13;5063188;28;20087;-56
2022/08/23 09:12:53;;;;;;;12.73;4.10;;;;;;;29.98;32.21;99374.34;5079836;28;20067;-55
2022/08/23 09:15:27;;;;;;;12.18;4.45;;;;;;;29.70;32.96;99371.88;5058162;28;20021;-54
2022/08/23 09:17:55;;;;;;;17.48;4.40;;;;;;;29.84;32.52;99380.41;5063831;28;20025;-55
2022/08/23 09:20:22;;;;;;;12.68;4.07;;;;;;;28.82;34.12;99378.00;5060878;28;20035;-55
2022/08/23 09:22:51;;;;;;;7.57;4.22;;;;;;;28.38;33.67;99373.47;5068233;28;20062;-55
2022/08/23 09:25:16;;;;;;;12.98;4.85;;;;;;;29.39;33.44;99381.94;5065400;28;20079;-56
2022/08/23 09:27:43;;;;;;;14.98;4.68;;;;;;;29.75;32.53;99374.34;5066207;28;20115;-56
2022/08/23 09:30:09;;;;;;;12.27;4.13;;;;;;;29.40;32.68;99383.53;5069090;28;20040;-55
2022/08/23 09:32:37;;;;;;;11.50;4.40;;;;;;;28.65;33.98;99383.91;5053978;28;20174;-55
2022/08/23 09:35:10;;;;;;;7.53;3.70;;;;;;;30.10;32.15;99373.34;5064685;28;20403;-55
2022/08/23 09:38:13;;;;;;;12.50;4.43;;;;;;;29.17;33.05;99379.94;5062545;28;20371;-55
2022/08/23 09:40:49;;;;;;;11.15;4.10;;;;;;;30.85;31.09;99366.22;5061164;28;20036;-55
2022/08/23 09:43:26;;;;;;;14.07;3.78;;;;;;;31.66;29.49;99372.28;5064467;28;20052;-55
2022/08/23 09:45:51;;;;;;;10.38;3.72;;;;;;;31.87;29.59;99372.47;5056373;28;20039;-55
2022/08/23 09:48:40;;;;;;;13.90;3.80;;;;;;;31.14;30.36;99372.88;5063873;28;20037;-54
2022/08/23 09:51:34;;;;;;;11.52;4.30;;;;;;;31.87;29.73;99366.91;5061652;28;20047;-55
2022/08/23 09:54:06;;;;;;;10.85;3.60;;;;;;;30.56;30.42;99362.22;5055024;28;20537;-55
2022/08/23 09:56:35;;;;;;;11.23;4.15;;;;;;;30.58;31.34;99368.19;5064228;28;20483;-54
2022/08/23 09:59:01;;;;;;;11.63;4.10;;;;;;;28.21;34.10;99362.00;5068456;28;20051;-55
2022/08/23 10:01:32;;;;;;;15.70;4.45;;;;;;;30.19;31.76;99359.28;5050226;28;20470;-55
2022/08/23 10:04:06;;;;;;;13.13;4.55;;;;;;;30.96;30.93;99355.28;5071941;28;20358;-55
2022/08/23 10:06:34;;;;;;;17.25;4.47;;;;;;;31.84;29.38;99358.59;5055228;28;20076;-55
2022/08/23 10:09:04;;;;;;;20.90;4.65;;;;;;;32.10;29.42;99360.41;5069171;28;20029;-55
2022/08/23 10:11:33;;;;;;;9.57;4.18;;;;;;;31.26;29.81;99354.44;5103816;28;20028;-55
2022/08/23 10:13:59;;;;;;;19.25;4.78;;;;;;;31.93;29.85;99351.56;5055144;28;20032;-55
2022/08/23 10:16:30;;;;;;;11.70;4.43;;;;;;;31.69;29.66;99343.81;5078275;28;20360;-55
2022/08/23 10:19:03;;;;;;;16.35;4.43;;;;;;;32.76;28.71;99355.69;5069629;28;20016;-54
2022/08/23 10:21:45;;;;;;;18.70;4.28;;;;;;;30.66;30.76;99353.28;5056749;28;20032;-55
2022/08/23 10:24:44;;;;;;;27.58;4.57;;;;;;;31.83;29.44;99343.94;5061009;28;20055;-56
2022/08/23 10:30:39;;;;;;;11.35;4.18;;;;;;;32.68;28.51;99348.53;5057143;28;20047;-55
2022/08/23 10:33:40;;;;;;;15.70;4.30;;;;;;;32.35;28.59;99344.75;5055561;28;20053;-55
2022/08/23 10:36:08;;;;;;;18.55;4.47;;;;;;;32.89;28.04;99350.59;5052744;28;20048;-54
2022/08/23 10:38:40;;;;;;;17.15;4.50;;;;;;;31.96;29.29;99348.03;5087183;28;20072;-54
2022/08/23 10:41:27;;;;;;;13.00;4.13;;;;;;;30.73;30.74;99338.75;5052272;28;20021;-53
2022/08/23 10:44:14;;;;;;;18.42;4.20;;;;;;;30.10;31.46;99337.41;5060191;28;20029;-54
2022/08/23 10:46:44;;;;;;;14.13;4.43;;;;;;;30.08;30.79;99334.25;5063928;28;20104;-54
2022/08/23 10:49:11;;;;;;;9.02;4.10;;;;;;;30.38;30.91;99327.97;5071158;28;20360;-55
2022/08/23 10:51:38;;;;;;;12.38;3.92;;;;;;;30.92;30.45;99332.28;5089981;28;20083;-54
2022/08/23 10:54:05;;;;;;;12.40;3.88;;;;;;;30.91;30.23;99325.16;5068400;28;20144;-55
2022/08/23 10:56:30;;;;;;;13.40;3.95;;;;;;;31.63;29.01;99326.75;5096768;28;20025;-56
2022/08/23 10:58:58;;;;;;;12.13;3.30;;;;;;;32.89;27.40;99333.94;5055321;28;20027;-55
2022/08/23 11:01:45;;;;;;;10.27;3.67;;;;;;;32.27;27.78;99329.22;5083718;28;20502;-56
2022/08/23 11:04:29;;;;;;;10.18;3.53;;;;;;;29.39;31.33;99323.97;5067268;28;20119;-54
2022/08/23 11:06:59;;;;;;;11.60;3.50;;;;;;;30.40;29.85;99317.34;5071931;28;20027;-56
2022/08/23 11:09:24;;;;;;;7.13;2.90;;;;;;;30.70;28.44;99326.47;5070337;28;20025;-56
2022/08/23 11:12:01;;;;;;;13.25;2.95;;;;;;;30.36;28.46;99322.84;5071164;28;20031;-55
2022/08/23 11:14:36;;;;;;;8.25;3.35;;;;;;;29.78;29.78;99326.66;5068299;28;20047;-56
2022/08/23 11:17:27;;;;;;;9.82;2.92;;;;;;;30.37;29.13;99323.63;5071953;28;20459;-56
2022/08/23 11:19:55;;;;;;;7.10;2.92;;;;;;;30.25;30.15;99328.22;5056067;28;20108;-55
2022/08/23 11:22:25;;;;;;;10.30;3.20;;;;;;;31.57;27.83;99326.28;5054932;28;20046;-54
2022/08/23 11:25:26;;;;;;;7.05;2.85;;;;;;;31.33;28.05;99322.09;5064651;28;20021;-54
2022/08/23 11:28:33;;;;;;;10.75;3.65;;;;;;;31.14;28.76;99322.25;5015496;28;20472;-55
2022/08/23 11:31:18;;;;;;;9.35;3.42;;;;;;;30.86;29.52;99311.66;5054399;28;20101;-54
2022/08/23 11:34:00;;;;;;;9.07;3.08;;;;;;;30.33;29.86;99317.25;5058997;28;20028;-55
2022/08/23 11:36:26;;;;;;;9.85;3.08;;;;;;;29.92;30.63;99314.25;5052158;28;20480;-54
2022/08/23 11:38:51;;;;;;;7.63;3.28;;;;;;;31.16;28.94;99309.63;5070154;28;20044;-55
2022/08/23 11:41:52;;;;;;;5.75;2.88;;;;;;;31.55;27.98;99306.50;5065850;28;20028;-54
2022/08/23 11:44:27;;;;;;;8.73;2.95;;;;;;;31.98;27.31;99306.88;5046659;28;20135;-56
2022/08/23 11:46:53;;;;;;;10.35;3.13;;;;;;;31.27;27.87;99306.19;5070395;28;20021;-55